Time;durP1;ratioP1;P1;durP2;ratioP2;P2;SDS_P1;SDS_P2;PMS_P1;PMS_P2;Temp;Humidity;BMP_temperature;BMP_pressure;BME280_temperature;BME280_humidity;BME280_pressure;Samples;Min_cycle;Max_cycle;Signal;HPM_P1;HPM_P2
2022/05/25 00:01:35;;;;;;;2.83;0.50;;;13.50;99.90;;;13.14;97.04;96952.03;5006993;28;20251;-48
2022/05/25 00:04:04;;;;;;;1.23;0.50;;;13.50;99.90;;;13.14;96.37;96950.25;5005541;28;21779;-45
2022/05/25 00:06:29;;;;;;;0.35;0.30;;;13.50;99.90;;;13.17;95.93;96950.09;5008319;28;20041;-49
2022/05/25 00:08:55;;;;;;;0.57;0.43;;;13.50;99.90;;;13.18;95.55;96949.13;5004400;28;20037;-49
2022/05/25 00:11:21;;;;;;;1.38;0.52;;;13.50;99.90;;;13.22;94.64;96948.97;5007083;28;20092;-47
2022/05/25 00:13:47;;;;;;;0.60;0.50;;;13.50;99.90;;;13.24;94.94;96955.03;4995146;28;20464;-47
2022/05/25 00:16:13;;;;;;;1.85;0.57;;;13.50;99.90;;;13.25;95.24;96951.47;5007196;28;20043;-48
2022/05/25 00:19:59;;;;;;;0.73;0.40;;;13.60;99.90;;;13.21;92.80;96948.13;5009316;28;20061;-48
2022/05/25 00:21:30;;;;;;;0.60;0.50;;;13.60;99.90;;;13.18;91.52;96946.47;5005008;28;20040;-48
2022/05/25 00:23:56;;;;;;;0.50;0.50;;;13.60;99.90;;;13.22;91.21;96943.66;5003795;28;20095;-47
2022/05/25 00:26:22;;;;;;;0.85;0.52;;;13.60;99.90;;;13.19;93.54;96947.34;5002879;28;20029;-47
2022/05/25 00:28:48;;;;;;;2.22;0.50;;;13.50;99.90;;;13.20;94.00;96945.56;4997556;28;20044;-44
2022/05/25 00:31:14;;;;;;;2.20;0.47;;;13.50;99.90;;;13.18;97.61;96943.81;5004602;28;20108;-46
2022/05/25 00:33:40;;;;;;;2.78;0.52;;;13.60;99.90;;;13.13;99.55;96937.94;5001943;28;20069;-46
2022/05/25 00:36:07;;;;;;;2.13;0.50;;;13.50;99.90;;;13.08;100.00;96939.13;5008648;28;20378;-47
2022/05/25 00:38:32;;;;;;;1.60;0.55;;;13.50;99.90;;;12.96;100.00;96930.06;5005099;28;20037;-47
2022/05/25 00:40:58;;;;;;;0.65;0.40;;;13.40;99.90;;;12.96;100.00;96941.50;5008343;28;20033;-49
2022/05/25 00:43:24;;;;;;;3.80;0.60;;;13.40;99.90;;;12.89;100.00;96950.72;5009744;28;20061;-49
2022/05/25 00:45:57;;;;;;;0.80;0.50;;;13.30;99.90;;;12.83;100.00;96945.75;5006902;28;20163;-48
2022/05/25 00:48:34;;;;;;;1.02;0.60;;;13.20;99.90;;;12.75;100.00;96953.22;5008243;28;20116;-48
2022/05/25 00:51:12;;;;;;;0.68;0.50;;;13.10;99.90;;;12.70;100.00;96956.09;5009112;28;20452;-50
2022/05/25 00:53:45;;;;;;;0.45;0.40;;;13.10;99.90;;;12.58;100.00;96941.75;4989507;28;20099;-49
2022/05/25 00:56:15;;;;;;;0.45;0.43;;;13.00;99.90;;;12.59;100.00;96954.03;4992409;28;20092;-49
2022/05/25 00:58:48;;;;;;;1.50;0.45;;;13.00;99.90;;;12.58;100.00;96960.25;5005672;28;20179;-48
2022/05/25 01:01:13;;;;;;;0.30;0.30;;;13.00;99.90;;;12.56;100.00;96958.63;5004375;28;20022;-46
2022/05/25 01:03:39;;;;;;;0.65;0.50;;;12.90;99.90;;;12.57;100.00;96963.84;5005954;28;20121;-48
2022/05/25 01:06:38;;;;;;;0.40;0.38;;;12.90;99.90;;;12.58;92.14;96967.34;5002571;28;23649;-49
2022/05/25 01:09:17;;;;;;;0.47;0.47;;;12.90;99.90;;;12.60;94.49;96968.97;5008909;28;20434;-48
2022/05/25 01:12:03;;;;;;;0.70;0.50;;;13.00;99.90;;;12.59;94.83;96971.69;5005666;28;20025;-49
2022/05/25 01:14:49;;;;;;;2.67;0.52;;;13.00;99.90;;;12.58;95.49;96970.00;5004505;28;21562;-47
2022/05/25 01:17:57;;;;;;;0.50;0.40;;;12.90;99.90;;;12.58;96.27;96972.66;5002873;28;20048;-45
2022/05/25 01:20:42;;;;;;;0.55;0.45;;;12.90;99.90;;;12.56;95.93;96983.31;5007995;28;20496;-48
2022/05/25 01:23:41;;;;;;;0.60;0.40;;;12.90;99.90;;;12.52;95.25;96983.53;5015214;28;20076;-49
2022/05/25 01:26:52;;;;;;;1.00;0.50;;;12.90;99.90;;;12.52;95.67;96976.44;4998818;28;20033;-48
2022/05/25 01:29:53;;;;;;;0.70;0.50;;;12.90;99.90;;;12.50;96.26;96988.88;5003047;28;20045;-49
2022/05/25 01:32:28;;;;;;;1.65;0.60;;;12.90;99.90;;;12.51;97.42;96984.47;5001761;28;20045;-49
2022/05/25 01:35:14;;;;;;;0.73;0.50;;;12.80;99.90;;;12.50;96.64;96988.03;4991080;28;20467;-48
2022/05/25 01:37:59;;;;;;;0.50;0.50;;;12.80;99.90;;;12.50;95.90;96980.09;4988442;28;20026;-48
2022/05/25 01:40:51;;;;;;;3.28;0.52;;;12.80;99.90;;;12.49;93.51;96981.03;4991413;28;20485;-49
2022/05/25 01:43:23;;;;;;;0.87;0.50;;;12.80;99.90;;;12.50;91.70;96980.09;5004498;28;20083;-48
2022/05/25 01:45:53;;;;;;;;;;;12.80;99.90;;;12.47;91.85;96978.50;4985383;28;20061;-48
2022/05/25 01:48:22;;;;;;;1.02;0.40;;;12.80;99.90;;;12.44;91.41;96977.78;5005222;28;19939;-49
2022/05/25 01:50:54;;;;;;;0.60;0.40;;;12.80;99.90;;;12.41;91.90;96981.44;4971835;28;20021;-49
2022/05/25 01:53:24;;;;;;;0.25;0.20;;;12.80;99.90;;;12.35;93.29;96976.47;5011242;28;20091;-48
2022/05/25 01:56:03;;;;;;;0.90;0.50;;;12.70;99.90;;;12.36;91.99;96988.72;4990524;28;20137;-50
2022/05/25 01:58:36;;;;;;;0.80;0.45;;;12.70;99.90;;;12.35;91.78;96993.19;4990529;28;20911;-49
2022/05/25 02:01:05;;;;;;;0.55;0.43;;;12.70;99.90;;;12.33;91.10;96996.84;4985440;28;20112;-49
2022/05/25 02:06:37;;;;;;;0.57;0.47;;;12.70;99.90;;;12.31;90.90;96996.03;5005033;28;20103;-49
2022/05/25 02:10:04;;;;;;;0.47;0.38;;;12.70;99.90;;;12.26;91.34;96998.06;5009453;28;20063;-47
2022/05/25 02:13:20;;;;;;;2.60;0.65;;;12.60;99.90;;;12.21;92.63;96995.66;5008223;28;20048;-49
2022/05/25 02:16:16;;;;;;;0.50;0.50;;;12.60;99.90;;;12.17;93.45;96994.09;4999159;28;20504;-47
2022/05/25 02:18:56;;;;;;;1.17;0.40;;;12.60;99.90;;;12.14;94.43;97000.38;5011229;28;20135;-50
2022/05/25 02:21:39;;;;;;;1.80;0.52;;;12.60;99.90;;;12.14;95.73;97002.19;5010168;28;20582;-48
2022/05/25 02:24:25;;;;;;;0.90;0.43;;;12.50;99.90;;;11.98;98.62;96983.56;5007790;28;20034;-47
2022/05/25 02:27:03;;;;;;;1.05;0.60;;;12.50;99.90;;;12.06;100.00;96993.75;5010844;28;20032;-49
2022/05/25 02:29:42;;;;;;;0.68;0.40;;;12.50;99.90;;;12.01;100.00;96984.28;5007721;28;20048;-46
2022/05/25 02:32:25;;;;;;;2.05;0.50;;;12.40;99.90;;;11.94;100.00;96988.16;4994900;28;20052;-47
2022/05/25 02:34:54;;;;;;;1.10;0.52;;;12.40;99.90;;;11.90;100.00;96990.97;5014350;28;20151;-48
2022/05/25 02:37:25;;;;;;;1.33;0.50;;;12.30;99.90;;;11.86;93.47;96990.28;5011364;28;20663;-48
2022/05/25 02:39:53;;;;;;;0.82;0.50;;;12.30;99.90;;;11.86;100.00;96992.91;4996617;28;20800;-46
2022/05/25 02:42:19;;;;;;;1.73;0.68;;;12.30;99.90;;;11.83;100.00;96996.56;5010464;28;20037;-45
2022/05/25 02:44:45;;;;;;;3.08;0.57;;;12.30;99.90;;;11.74;100.00;96985.59;5010416;28;20033;-45
2022/05/25 02:47:11;;;;;;;4.35;0.80;;;12.20;99.90;;;11.74;100.00;97001.47;5019011;28;20028;-49
2022/05/25 02:49:37;;;;;;;3.20;0.60;;;12.20;99.90;;;11.70;100.00;97000.75;5006429;28;20045;-47
2022/05/25 02:52:05;;;;;;;2.40;0.60;;;12.20;99.90;;;11.65;100.00;96997.47;5008327;28;20033;-45
2022/05/25 02:54:31;;;;;;;1.98;0.50;;;12.10;99.90;;;11.62;100.00;97006.38;5010592;28;20033;-44
2022/05/25 02:56:56;;;;;;;1.40;0.60;;;12.10;99.90;;;11.63;100.00;97001.97;5011548;28;20033;-44
2022/05/25 02:59:22;;;;;;;0.77;0.50;;;12.10;99.90;;;11.62;100.00;97008.16;5014141;28;20029;-44
2022/05/25 03:01:48;;;;;;;0.82;0.40;;;12.10;99.90;;;11.58;100.00;97010.09;5013921;28;20071;-47
2022/05/25 03:04:14;;;;;;;1.15;0.60;;;12.10;99.90;;;11.55;100.00;97012.88;5013840;28;20056;-46
2022/05/25 03:06:40;;;;;;;0.77;0.55;;;12.00;99.90;;;11.54;100.00;97021.75;5011952;28;20039;-45
2022/05/25 03:09:05;;;;;;;1.08;0.50;;;12.00;99.90;;;11.51;94.79;97026.31;5010344;28;20067;-44
2022/05/25 03:11:31;;;;;;;0.93;0.40;;;12.00;99.90;;;11.55;94.63;97019.94;5007245;28;20813;-46
2022/05/25 03:13:57;;;;;;;0.90;0.60;;;12.00;99.90;;;11.56;94.43;97019.88;5008823;28;20041;-44
2022/05/25 03:16:22;;;;;;;2.08;0.47;;;12.00;99.90;;;11.47;92.44;96999.19;5005630;28;21276;-44
2022/05/25 03:18:50;;;;;;;2.33;0.50;;;12.00;99.90;;;11.60;92.33;97020.59;5008497;28;20124;-44
2022/05/25 03:21:18;;;;;;;0.95;0.50;;;12.00;99.90;;;11.61;92.11;97017.00;5003732;28;20036;-44
2022/05/25 03:23:44;;;;;;;2.45;0.40;;;12.00;99.90;;;11.62;91.06;97019.59;5010849;28;20029;-44
2022/05/25 03:26:10;;;;;;;0.75;0.50;;;12.00;99.90;;;11.57;90.28;97015.44;5010081;28;20047;-45
2022/05/25 03:28:36;;;;;;;0.40;0.40;;;12.10;99.90;;;11.59;90.71;97014.47;5006495;28;20039;-47
2022/05/25 03:31:03;;;;;;;1.65;0.60;;;12.10;99.90;;;11.67;92.55;97023.81;5010117;28;20033;-45
2022/05/25 03:33:29;;;;;;;1.08;0.70;;;12.10;99.90;;;11.64;89.95;97033.56;5006531;28;20066;-46
2022/05/25 03:35:55;;;;;;;0.90;0.45;;;12.10;99.90;;;11.68;90.46;97034.28;5004212;28;20033;-44
2022/05/25 03:38:20;;;;;;;1.08;0.60;;;12.10;99.90;;;11.67;88.52;97034.38;5003192;28;20046;-44
2022/05/25 03:40:47;;;;;;;1.65;0.50;;;12.10;99.90;;;11.70;88.65;97039.50;5011621;28;20244;-44
2022/05/25 03:43:17;;;;;;;1.58;0.40;;;12.10;99.90;;;11.73;88.89;97040.22;5009904;28;20022;-46
2022/05/25 03:45:44;;;;;;;1.20;0.45;;;12.20;99.90;;;11.73;87.14;97049.94;4981474;28;20520;-44
2022/05/25 03:48:10;;;;;;;0.85;0.45;;;12.20;99.90;;;11.77;87.40;97046.19;5003000;28;20121;-47
2022/05/25 03:50:41;;;;;;;1.10;0.50;;;12.20;99.90;;;11.79;88.21;97052.25;5004864;28;20037;-46
2022/05/25 03:53:12;;;;;;;1.75;0.40;;;12.20;99.90;;;11.79;89.00;97054.91;5000945;28;20292;-45
2022/05/25 03:55:38;;;;;;;0.60;0.40;;;12.20;99.90;;;11.81;90.02;97058.34;5002227;28;20037;-44
2022/05/25 03:58:04;;;;;;;0.85;0.50;;;12.20;99.90;;;11.78;90.58;97069.91;5004667;28;20174;-44
2022/05/25 04:00:31;;;;;;;0.88;0.50;;;12.20;99.90;;;11.81;90.40;97069.78;5037265;22;20080;-38
2022/05/25 04:02:59;;;;;;;1.17;0.63;;;12.20;99.90;;;11.83;89.91;97065.28;5027418;28;20036;-38
2022/05/25 04:05:26;;;;;;;1.00;0.40;;;12.20;99.90;;;11.85;91.05;97076.63;5028473;28;20021;-38
2022/05/25 04:07:54;;;;;;;1.10;0.50;;;12.20;99.90;;;11.86;92.34;97069.53;5027067;28;20488;-36
2022/05/25 04:10:20;;;;;;;0.70;0.50;;;12.20;99.90;;;11.69;91.56;97045.72;5011055;28;21065;-37
2022/05/25 04:12:47;;;;;;;1.08;0.52;;;12.20;99.90;;;11.89;92.07;97084.41;5008058;28;20124;-37
2022/05/25 04:15:21;;;;;;;0.73;0.50;;;12.20;99.90;;;11.90;92.96;97084.38;5001087;28;20117;-37
2022/05/25 04:17:47;;;;;;;0.30;0.30;;;12.30;99.90;;;11.91;93.79;97090.50;5004837;28;20498;-37
2022/05/25 04:20:14;;;;;;;0.98;0.43;;;12.30;99.90;;;11.90;94.50;97091.38;4999657;28;20044;-37
2022/05/25 04:22:41;;;;;;;0.73;0.50;;;12.30;99.90;;;11.88;94.95;97083.56;4993178;28;20018;-37
2022/05/25 04:25:11;;;;;;;0.73;0.40;;;12.30;99.90;;;11.91;95.77;97093.16;5001208;28;20789;-37
2022/05/25 04:27:40;;;;;;;1.00;0.50;;;12.30;99.90;;;11.82;96.27;97078.56;5007099;28;20502;-37
2022/05/25 04:30:09;;;;;;;1.38;0.50;;;12.30;99.90;;;11.93;94.91;97101.84;5008854;28;20053;-37
2022/05/25 04:32:35;;;;;;;0.55;0.50;;;12.30;99.90;;;11.95;94.76;97106.16;5004019;28;20025;-37
2022/05/25 04:35:00;;;;;;;0.40;0.40;;;12.30;99.90;;;11.98;93.39;97107.78;5009814;28;20501;-37
2022/05/25 04:40:12;;;;;;;1.05;0.55;;;12.40;99.90;;;12.16;92.15;97119.28;5008862;28;20705;-37
2022/05/25 04:42:39;;;;;;;2.80;0.82;;;12.50;99.90;;;12.25;91.14;97116.19;5008383;28;20029;-37
2022/05/25 04:45:07;;;;;;;0.50;0.50;;;12.60;99.90;;;12.34;89.49;97112.25;5007910;28;20195;-37
2022/05/25 04:47:34;;;;;;;0.85;0.57;;;12.70;99.90;;;12.43;88.79;97118.88;5006034;28;20045;-37
2022/05/25 04:50:01;;;;;;;1.88;0.63;;;12.80;99.90;;;12.43;86.30;97111.78;4993836;28;20045;-37
2022/05/25 04:52:27;;;;;;;1.27;0.70;;;12.80;99.90;;;12.50;87.07;97122.94;4990235;28;20038;-37
2022/05/25 04:54:53;;;;;;;0.52;0.52;;;12.90;99.90;;;12.52;88.93;97126.34;5008769;28;20533;-37
2022/05/25 04:57:19;;;;;;;1.67;0.60;;;12.90;99.90;;;12.50;87.89;97141.44;5008992;28;20505;-37
2022/05/25 04:59:47;;;;;;;1.52;0.50;;;12.90;99.90;;;12.49;88.15;97148.53;5003171;28;20067;-37
2022/05/25 05:02:14;;;;;;;1.35;0.80;;;12.80;99.90;;;12.45;87.11;97149.59;5005604;28;20040;-37
2022/05/25 05:04:39;;;;;;;1.38;0.60;;;12.80;99.90;;;12.38;86.43;97146.41;5001441;28;20036;-38
2022/05/25 05:07:05;;;;;;;1.73;0.60;;;12.70;99.90;;;12.34;86.18;97155.41;4997983;28;20057;-37
2022/05/25 05:09:36;;;;;;;2.03;0.60;;;12.70;99.90;;;12.24;86.09;97148.84;4998098;28;20401;-38
2022/05/25 05:12:02;;;;;;;0.82;0.50;;;12.60;99.90;;;12.22;86.38;97162.16;5005110;28;20038;-38
2022/05/25 05:14:28;;;;;;;1.20;0.57;;;12.60;99.90;;;12.17;85.39;97163.28;5002845;28;20033;-37
2022/05/25 05:17:03;;;;;;;1.60;0.65;;;12.50;99.90;;;12.24;84.99;97172.66;5011776;28;20044;-37
2022/05/25 05:19:29;;;;;;;1.55;0.63;;;12.50;99.90;;;12.18;85.49;97180.84;5012026;28;20026;-37
2022/05/25 05:21:59;;;;;;;4.50;0.60;;;12.50;99.90;;;12.15;85.97;97176.59;5015653;28;20030;-37
2022/05/25 05:24:27;;;;;;;1.42;0.50;;;12.50;99.90;;;12.21;85.86;97170.16;5014105;28;20091;-38
2022/05/25 05:26:54;;;;;;;2.42;0.80;;;12.50;99.90;;;12.39;84.84;97185.13;5013530;28;20022;-39
2022/05/25 05:29:20;;;;;;;1.02;0.60;;;12.60;99.90;;;12.50;84.03;97187.25;5012407;28;20041;-38
2022/05/25 05:31:46;;;;;;;0.55;0.52;;;12.70;99.90;;;12.63;85.81;97176.94;5013759;28;20469;-39
2022/05/25 05:34:12;;;;;;;5.75;1.10;;;12.90;99.90;;;12.76;86.31;97148.09;5012200;28;20084;-38
2022/05/25 05:36:45;;;;;;;1.70;0.75;;;13.10;99.90;;;13.16;81.81;97169.91;5018519;28;20405;-38
2022/05/25 05:39:13;;;;;;;3.55;0.55;;;13.30;99.90;;;13.29;80.83;97186.03;4998652;28;20052;-38
2022/05/25 05:41:48;;;;;;;1.55;0.60;;;13.40;99.90;;;13.24;82.07;97182.75;5014205;28;20029;-39
2022/05/25 05:44:18;;;;;;;2.72;1.00;;;13.40;99.90;;;13.23;83.12;97189.84;5013594;28;20498;-38
2022/05/25 05:46:45;;;;;;;5.35;0.80;;;13.40;99.90;;;13.31;83.28;97184.19;5015692;28;20596;-38
2022/05/25 05:49:12;;;;;;;1.00;0.50;;;13.50;99.90;;;13.50;82.96;97190.25;5016536;28;20045;-39
2022/05/25 05:51:40;;;;;;;1.33;0.80;;;13.70;99.90;;;13.72;84.23;97200.56;5017212;28;20408;-38
2022/05/25 05:54:06;;;;;;;2.40;0.60;;;13.80;99.90;;;13.91;81.10;97195.16;5015777;28;20063;-39
2022/05/25 05:56:33;;;;;;;2.38;0.63;;;14.10;99.90;;;14.11;80.74;97190.56;5014687;28;20041;-39
2022/05/25 05:59:00;;;;;;;7.32;2.22;;;14.20;99.90;;;14.22;81.52;97209.41;5017708;28;20038;-39
2022/05/25 06:01:26;;;;;;;6.65;2.08;;;14.30;99.90;;;14.24;83.05;97198.72;5012153;28;20033;-38
2022/05/25 06:03:52;;;;;;;1.55;0.77;;;14.40;99.90;;;14.06;82.54;97203.22;5018266;28;20033;-39
2022/05/25 06:06:18;;;;;;;1.33;0.70;;;14.30;99.90;;;13.92;84.35;97210.09;5019024;28;20033;-38
2022/05/25 06:08:46;;;;;;;5.03;0.70;;;14.20;99.90;;;13.72;86.53;97218.28;5018874;28;20065;-39
2022/05/25 06:11:16;;;;;;;3.33;0.70;;;14.00;99.90;;;13.64;87.23;97213.38;5016516;28;20033;-38
2022/05/25 06:13:43;;;;;;;1.05;0.77;;;13.90;99.90;;;13.74;84.96;97211.94;5018779;28;20559;-39
2022/05/25 06:21:37;;;;;;;0.55;0.50;;;14.30;99.90;;;14.37;78.13;97226.25;5014810;28;20068;-38
2022/05/25 06:24:04;;;;;;;0.50;0.50;;;14.60;99.90;;;14.59;78.71;97226.00;5015562;28;20458;-39
2022/05/25 06:26:31;;;;;;;1.70;0.50;;;14.80;99.90;;;14.76;74.59;97240.09;5016828;28;20033;-39
2022/05/25 06:28:58;;;;;;;0.73;0.50;;;15.00;99.90;;;14.81;72.46;97244.22;5014635;28;20033;-39
2022/05/25 06:31:24;;;;;;;1.55;0.70;;;15.10;99.90;;;14.99;73.56;97247.63;5016119;28;20033;-38
2022/05/25 06:33:50;;;;;;;2.25;0.60;;;15.30;99.90;;;15.12;72.68;97249.56;5015949;28;20491;-38
2022/05/25 06:36:19;;;;;;;1.05;0.65;;;15.40;99.90;;;15.22;71.37;97251.59;5013268;28;20104;-38
2022/05/25 06:38:46;;;;;;;2.13;0.68;;;15.60;99.90;;;15.24;71.83;97254.19;5015022;28;20489;-38
2022/05/25 06:41:13;;;;;;;1.25;0.50;;;15.60;99.90;;;15.24;71.26;97241.75;5016471;28;20056;-38
2022/05/25 06:43:39;;;;;;;0.68;0.55;;;15.70;99.90;;;15.41;72.00;97251.38;5016344;28;20064;-39
2022/05/25 06:46:07;;;;;;;1.70;0.80;;;15.80;99.90;;;15.55;69.51;97263.00;5015867;28;20076;-39
2022/05/25 06:48:33;;;;;;;0.75;0.63;;;15.90;99.90;;;15.70;70.07;97256.75;5015082;28;20039;-39
2022/05/25 06:51:09;;;;;;;1.33;0.60;;;16.00;99.90;;;15.65;68.63;97264.19;5016075;28;20033;-38
2022/05/25 06:53:35;;;;;;;3.83;0.65;;;16.00;99.90;;;15.56;67.95;97262.03;5016431;28;20044;-37
2022/05/25 06:56:01;;;;;;;0.85;0.65;;;15.80;99.90;;;15.43;69.65;97264.56;5014973;28;20037;-37
2022/05/25 06:58:26;;;;;;;2.33;0.73;;;15.70;99.90;;;15.24;71.11;97270.13;5016234;28;20424;-37
2022/05/25 07:00:52;;;;;;;0.70;0.40;;;15.50;99.90;;;14.97;72.81;97268.09;5015825;28;20057;-38
2022/05/25 07:03:18;;;;;;;3.33;1.13;;;15.30;99.90;;;14.88;75.79;97268.63;5002011;28;20033;-37
2022/05/25 07:05:43;;;;;;;1.58;0.57;;;15.20;99.90;;;15.03;75.68;97278.34;5018506;28;20112;-37
2022/05/25 07:08:09;;;;;;;1.98;0.60;;;15.30;99.90;;;15.18;76.00;97278.41;5014564;28;20038;-38
2022/05/25 07:10:35;;;;;;;2.20;0.75;;;15.40;99.90;;;15.26;73.18;97281.50;5013862;28;20385;-37
2022/05/25 07:13:00;;;;;;;1.23;0.68;;;15.50;99.90;;;15.49;72.34;97281.94;5015809;28;20069;-37
2022/05/25 07:15:26;;;;;;;1.60;0.65;;;15.70;99.90;;;15.70;69.06;97290.47;5014683;28;20037;-37
2022/05/25 07:17:52;;;;;;;0.80;0.40;;;15.90;99.90;;;15.87;68.64;97293.03;5014851;28;20469;-38
2022/05/25 07:20:18;;;;;;;4.13;0.80;;;16.10;99.90;;;15.95;65.58;97282.78;5017295;28;20454;-38
2022/05/25 07:22:44;;;;;;;4.03;0.90;;;16.30;99.90;;;16.19;66.37;97293.72;5015738;28;20057;-38
2022/05/25 07:25:09;;;;;;;1.33;0.60;;;16.40;99.90;;;16.29;65.57;97293.16;5014812;28;20103;-38
2022/05/25 07:27:35;;;;;;;0.82;0.65;;;16.60;99.90;;;16.39;63.27;97291.63;5015697;28;20504;-38
2022/05/25 07:30:01;;;;;;;1.58;0.90;;;16.70;99.90;;;16.44;63.35;97291.34;5016710;28;20029;-38
2022/05/25 07:32:27;;;;;;;1.30;0.70;;;16.70;99.90;;;16.53;61.99;97296.97;5016503;28;20064;-38
2022/05/25 07:35:02;;;;;;;1.88;0.65;;;16.80;99.90;;;16.64;63.43;97303.44;5022723;28;20762;-38
2022/05/25 07:37:33;;;;;;;4.55;0.70;;;16.90;99.90;;;16.73;63.57;97294.84;5015540;28;20034;-38
2022/05/25 07:40:27;;;;;;;1.80;0.88;;;17.00;99.90;;;16.83;67.88;97285.34;5014670;28;20164;-38
2022/05/25 07:42:59;;;;;;;3.70;0.80;;;17.10;99.90;;;17.02;60.03;97293.00;4993751;28;20182;-38
2022/05/25 07:45:26;;;;;;;1.60;0.70;;;17.30;99.90;;;17.21;61.21;97300.66;5013078;28;20022;-38
2022/05/25 07:47:53;;;;;;;1.75;0.82;;;17.50;99.90;;;17.15;56.36;97295.72;5013597;28;20029;-38
2022/05/25 07:50:21;;;;;;;2.83;0.80;;;17.50;99.90;;;17.23;57.30;97296.09;5015365;28;20068;-38
2022/05/25 07:52:50;;;;;;;1.13;0.70;;;17.50;99.90;;;17.14;54.21;97307.34;5012974;28;20057;-38
2022/05/25 07:55:17;;;;;;;2.05;0.70;;;17.50;99.90;;;17.17;56.69;97299.13;4995310;28;20025;-38
2022/05/25 07:57:43;;;;;;;1.58;1.08;;;17.40;99.90;;;17.16;55.99;97303.63;4997335;28;20033;-38
2022/05/25 08:00:10;;;;;;;3.42;0.80;;;17.40;99.90;;;17.03;53.88;97309.84;5011266;28;20026;-38
2022/05/25 08:08:17;;;;;;;0.85;0.40;;;17.70;99.70;;;17.29;53.77;97284.16;5000691;28;20441;-38
2022/05/25 08:10:48;;;;;;;3.65;1.00;;;17.70;99.40;;;17.28;56.44;97320.63;5014249;28;20026;-38
2022/05/25 08:13:17;;;;;;;1.73;0.80;;;17.60;99.90;;;17.30;56.29;97310.72;5020614;28;20688;-38
2022/05/25 08:15:45;;;;;;;3.08;0.88;;;17.60;99.90;;;17.41;58.26;97307.34;5012789;28;20033;-38
2022/05/25 08:18:13;;;;;;;1.38;0.60;;;17.70;99.90;;;17.55;54.28;97306.44;5015490;28;20026;-38
2022/05/25 08:20:39;;;;;;;2.53;0.70;;;17.90;99.90;;;17.71;55.04;97298.25;5012671;28;20116;-38
2022/05/25 08:23:08;;;;;;;2.50;0.60;;;18.10;99.60;;;17.78;51.47;97296.88;5014675;28;20033;-38
2022/05/25 08:25:34;;;;;;;1.92;0.70;;;18.30;97.60;;;18.10;52.63;97305.38;5012339;28;20124;-38
2022/05/25 08:28:01;;;;;;;2.53;0.60;;;18.40;98.20;;;18.45;51.02;97302.06;5014357;28;20040;-38
2022/05/25 08:30:27;;;;;;;2.15;0.80;;;18.80;97.80;;;18.80;49.55;97304.03;5013602;28;20036;-38
2022/05/25 08:32:53;;;;;;;0.45;0.45;;;19.20;97.10;;;19.09;47.26;97311.81;5010802;28;20034;-38
2022/05/25 08:35:19;;;;;;;1.58;0.57;;;19.50;95.30;;;19.14;49.03;97312.31;5012000;28;20033;-38
2022/05/25 08:37:46;;;;;;;3.15;0.60;;;19.50;96.00;;;19.15;47.80;97306.03;5015321;28;20150;-38
2022/05/25 08:40:17;;;;;;;2.22;0.57;;;19.50;95.10;;;19.32;47.71;97298.56;5014470;28;19925;-38
2022/05/25 08:43:08;;;;;;;4.80;0.98;;;19.60;94.60;;;19.62;49.27;97298.97;5024747;28;20040;-38
2022/05/25 08:45:38;;;;;;;1.15;0.70;;;19.90;95.20;;;19.59;49.42;97307.19;5022041;28;20041;-38
2022/05/25 08:48:08;;;;;;;1.08;0.55;;;20.10;95.70;;;19.69;47.50;97306.53;5013930;28;20079;-38
2022/05/25 08:50:36;;;;;;;0.82;0.60;;;20.10;94.30;;;19.62;48.85;97304.31;5019104;28;20081;-38
2022/05/25 08:53:03;;;;;;;4.25;0.80;;;19.90;94.20;;;19.24;50.56;97310.69;5013990;28;20128;-38
2022/05/25 08:55:59;;;;;;;2.65;0.68;;;19.70;95.40;;;19.05;50.18;97307.66;5016186;28;20041;-39
2022/05/25 08:58:46;;;;;;;1.92;0.70;;;19.40;95.30;;;18.59;47.61;97302.91;5015880;28;20113;-38
2022/05/25 09:01:49;;;;;;;1.60;0.60;;;19.10;93.30;;;18.42;56.10;97296.09;5018035;28;20120;-39
2022/05/25 09:04:44;;;;;;;2.38;0.85;;;18.80;97.70;;;18.01;52.58;97306.00;5011508;28;20088;-39
2022/05/25 09:07:35;;;;;;;0.73;0.52;;;18.50;97.00;;;17.78;54.38;97312.88;5006759;28;20044;-39
2022/05/25 09:10:03;;;;;;;6.03;0.80;;;18.10;97.30;;;17.47;55.19;97306.94;5019118;28;20485;-38
2022/05/25 09:12:50;;;;;;;2.40;0.55;;;17.80;97.20;;;17.43;51.48;97292.09;5018297;28;20276;-39
2022/05/25 09:18:43;;;;;;;2.10;0.65;;;17.90;95.70;;;17.96;49.52;97296.63;5000497;28;21110;-39
2022/05/25 09:21:10;;;;;;;2.67;0.52;;;18.30;94.70;;;18.21;47.66;97298.44;4998487;28;20084;-38
2022/05/25 09:23:37;;;;;;;3.00;0.63;;;18.60;93.70;;;18.42;50.03;97296.94;5016304;28;20025;-38
2022/05/25 09:26:03;;;;;;;1.55;0.80;;;18.80;94.60;;;18.76;51.06;97302.56;5025342;28;20079;-38
2022/05/25 09:28:35;;;;;;;2.97;0.90;;;19.10;95.40;;;18.98;47.43;97309.91;5017554;28;20065;-38
2022/05/25 09:31:03;;;;;;;1.67;0.70;;;19.40;92.90;;;19.23;47.89;97308.13;5010855;28;20041;-38
2022/05/25 09:33:43;;;;;;;1.05;0.52;;;19.50;93.50;;;19.48;47.87;97317.00;5016679;28;20323;-39
2022/05/25 09:36:15;;;;;;;2.33;1.02;;;19.70;93.40;;;19.64;47.14;97318.41;5024443;28;20034;-39
2022/05/25 09:38:56;;;;;;;4.63;0.70;;;19.90;92.60;;;19.79;46.11;97321.81;5003717;28;20060;-38
2022/05/25 09:41:25;;;;;;;3.60;0.50;;;20.00;91.90;;;19.90;47.37;97328.16;5015107;28;20365;-39
2022/05/25 09:43:58;;;;;;;1.27;0.57;;;20.10;93.30;;;19.68;45.25;97316.34;5017246;28;20021;-39
2022/05/25 09:46:34;;;;;;;2.95;0.60;;;19.90;91.30;;;19.57;45.04;97327.03;5018161;28;20026;-39
2022/05/25 09:49:04;;;;;;;2.55;0.80;;;19.80;91.90;;;19.31;46.38;97331.63;5000133;28;20033;-39
2022/05/25 09:51:36;;;;;;;0.75;0.50;;;19.70;91.80;;;19.40;51.09;97330.97;4999968;28;20029;-39
2022/05/25 09:54:06;;;;;;;2.90;0.88;;;19.60;93.80;;;19.58;46.52;97334.09;5016348;28;20060;-38
2022/05/25 09:56:44;;;;;;;0.88;0.55;;;19.90;92.20;;;19.92;49.47;97324.41;5017157;28;20051;-39
2022/05/25 09:59:29;;;;;;;1.65;0.52;;;20.20;93.40;;;20.01;45.50;97326.38;5015511;28;20034;-39
2022/05/25 10:01:55;;;;;;;1.42;0.60;;;20.40;91.70;;;19.86;43.27;97315.97;5016382;28;20030;-38
2022/05/25 10:04:51;;;;;;;3.38;0.88;;;20.40;87.90;;;19.75;44.48;97314.13;5017471;28;20025;-38
2022/05/25 10:07:37;;;;;;;1.25;0.77;;;20.20;87.90;;;19.67;42.63;97316.47;5016520;28;20036;-39
2022/05/25 10:10:12;;;;;;;1.40;0.50;;;20.10;87.80;;;19.60;44.36;97308.06;5018834;28;20527;-39
2022/05/25 10:12:37;;;;;;;1.15;0.40;;;20.00;87.70;;;19.56;43.72;97310.13;5015842;28;20136;-39
2022/05/25 10:17:38;;;;;;;0.63;0.50;;;19.90;89.70;;;19.69;46.44;97307.38;4998248;28;20429;-47
2022/05/25 10:20:23;;;;;;;1.53;0.50;;;20.10;91.00;;;19.97;45.35;97314.22;4997939;28;20543;-46
2022/05/25 10:23:07;;;;;;;2.05;0.60;;;20.30;90.30;;;19.97;44.23;97318.69;4999582;28;20026;-45
2022/05/25 10:25:44;;;;;;;5.25;0.55;;;20.30;88.60;;;19.84;44.49;97319.63;4997109;28;20053;-47
2022/05/25 10:28:44;;;;;;;6.43;0.73;;;20.10;88.50;;;19.79;46.84;97320.94;4993171;28;20068;-47
2022/05/25 10:37:35;;;;;;;0.50;0.50;;;19.90;92.60;;;19.70;47.15;97318.94;4993268;28;20181;-45
2022/05/25 10:40:06;;;;;;;2.45;0.77;;;19.90;91.20;;;19.83;45.82;97319.75;4988611;28;20615;-45
2022/05/25 10:42:39;;;;;;;4.10;0.60;;;20.00;90.40;;;19.97;44.49;97313.31;4992426;28;20025;-46
2022/05/25 10:45:19;;;;;;;0.75;0.60;;;20.20;90.10;;;20.21;44.90;97319.47;4990405;28;20403;-44
2022/05/25 10:47:49;;;;;;;2.95;0.60;;;20.40;89.20;;;20.29;43.44;97326.06;4993582;28;20050;-45
2022/05/25 10:50:32;;;;;;;2.67;0.60;;;20.60;86.00;;;20.47;45.92;97321.94;4987915;28;20115;-44
2022/05/25 10:53:26;;;;;;;5.85;0.98;;;20.60;88.00;;;20.54;40.66;97316.97;4992045;28;20045;-49
2022/05/25 10:56:38;;;;;;;1.55;0.60;;;20.90;88.20;;;20.52;42.13;97317.09;4991279;28;20101;-48
2022/05/25 10:59:15;;;;;;;1.23;0.40;;;20.90;82.50;;;20.61;42.64;97315.53;4992635;28;20121;-50
2022/05/25 11:02:36;;;;;;;1.10;0.50;;;21.10;83.80;;;20.89;47.12;97316.88;4989534;28;20033;-48
2022/05/25 11:05:30;;;;;;;0.63;0.50;;;21.20;91.10;;;20.59;40.08;97320.13;4992079;28;20105;-48
2022/05/25 11:08:22;;;;;;;1.13;0.52;;;21.10;78.60;;;20.28;41.93;97322.53;4990689;28;20038;-51